Time;durP1;ratioP1;P1;durP2;ratioP2;P2;SDS_P1;SDS_P2;PMS_P1;PMS_P2;Temp;Humidity;BMP_temperature;BMP_pressure;BME280_temperature;BME280_humidity;BME280_pressure;Samples;Min_cycle;Max_cycle;Signal;HPM_P1;HPM_P2
2022/12/31 00:00:31;;;;;;;1.70;1.13;;;14.00;98.00;;;;;;5035452;28;20455;-73
2022/12/31 00:02:58;;;;;;;1.20;1.10;;;14.10;98.00;;;;;;5035557;28;20555;-73
2022/12/31 00:05:29;;;;;;;2.90;1.30;;;14.10;98.00;;;;;;5035295;28;20453;-73
2022/12/31 00:07:57;;;;;;;1.40;1.10;;;14.00;98.00;;;;;;5035316;28;20510;-73
2022/12/31 00:10:25;;;;;;;1.30;1.17;;;14.10;98.00;;;;;;5035071;28;20548;-73
2022/12/31 00:12:53;;;;;;;1.20;1.10;;;14.10;98.00;;;;;;5034715;28;20464;-73
2022/12/31 00:15:21;;;;;;;1.30;1.10;;;14.10;98.00;;;;;;5034673;28;20464;-73
2022/12/31 00:17:48;;;;;;;1.20;1.10;;;14.20;98.00;;;;;;5034785;28;20457;-73
2022/12/31 00:20:16;;;;;;;1.40;1.17;;;14.10;98.00;;;;;;5034890;28;20465;-73
2022/12/31 00:22:48;;;;;;;1.20;1.10;;;14.20;98.00;;;;;;5034748;28;20492;-73
2022/12/31 00:25:15;;;;;;;1.57;1.20;;;14.30;98.00;;;;;;5034783;28;20476;-73
2022/12/31 00:27:42;;;;;;;1.83;1.20;;;14.20;98.00;;;;;;5034547;28;20491;-73
2022/12/31 00:30:10;;;;;;;1.20;1.00;;;14.30;98.00;;;;;;5034779;28;20465;-73
2022/12/31 00:32:37;;;;;;;1.97;1.30;;;14.30;98.00;;;;;;5034819;28;20963;-73
2022/12/31 00:35:07;;;;;;;1.30;1.10;;;14.30;98.00;;;;;;5034671;28;20457;-73
2022/12/31 00:37:34;;;;;;;1.33;1.20;;;14.40;98.00;;;;;;5034573;28;20935;-73
2022/12/31 00:40:06;;;;;;;1.20;1.00;;;14.40;98.00;;;;;;5034543;28;20453;-72
2022/12/31 00:42:33;;;;;;;1.30;1.20;;;14.40;98.00;;;;;;5034485;28;20489;-73
2022/12/31 00:45:00;;;;;;;1.30;1.17;;;14.50;98.00;;;;;;5034590;28;20469;-73
2022/12/31 00:47:27;;;;;;;1.30;1.20;;;14.50;98.00;;;;;;5034319;28;20476;-73
2022/12/31 00:49:54;;;;;;;1.30;1.20;;;14.60;98.00;;;;;;5034506;28;20954;-73
2022/12/31 00:52:21;;;;;;;1.40;1.20;;;14.60;98.00;;;;;;5034181;28;20523;-73
2022/12/31 00:54:48;;;;;;;1.40;1.20;;;14.70;98.00;;;;;;5034563;28;20470;-73
2022/12/31 00:57:17;;;;;;;1.20;1.17;;;14.70;98.00;;;;;;5034294;28;20456;-73
2022/12/31 00:59:44;;;;;;;1.50;1.20;;;14.70;98.00;;;;;;5034264;28;20507;-73
2022/12/31 01:02:12;;;;;;;1.20;1.10;;;14.70;98.00;;;;;;5034422;28;20461;-73
2022/12/31 01:04:39;;;;;;;1.30;1.10;;;14.70;98.00;;;;;;5034143;28;20532;-73
2022/12/31 01:07:06;;;;;;;1.20;1.20;;;14.80;98.00;;;;;;5033842;28;20456;-73
2022/12/31 01:09:33;;;;;;;1.20;1.20;;;14.80;98.00;;;;;;5033224;28;20451;-73
2022/12/31 01:12:00;;;;;;;1.30;1.20;;;14.70;98.00;;;;;;5033844;28;21008;-73
2022/12/31 01:14:28;;;;;;;1.30;1.20;;;14.70;98.00;;;;;;5033831;28;20456;-73
2022/12/31 01:16:55;;;;;;;1.60;1.33;;;14.80;98.00;;;;;;5033872;28;20460;-73
2022/12/31 01:19:25;;;;;;;1.33;1.10;;;14.80;98.00;;;;;;5032521;28;20469;-73
2022/12/31 01:21:53;;;;;;;1.50;1.20;;;14.90;98.00;;;;;;5033424;28;20457;-73
2022/12/31 01:24:20;;;;;;;1.20;1.10;;;14.90;98.00;;;;;;5033773;28;20471;-73
2022/12/31 01:26:47;;;;;;;1.40;1.10;;;14.80;98.00;;;;;;5033481;28;20458;-73
2022/12/31 01:29:15;;;;;;;1.20;1.00;;;14.80;98.00;;;;;;5033722;28;20481;-73
2022/12/31 01:31:44;;;;;;;1.93;1.37;;;14.80;98.00;;;;;;5033549;28;21049;-73
2022/12/31 01:34:11;;;;;;;1.30;1.20;;;14.90;98.00;;;;;;5033483;28;20944;-73
2022/12/31 01:36:39;;;;;;;1.30;1.20;;;14.90;98.00;;;;;;5033827;28;20464;-73
2022/12/31 01:39:08;;;;;;;1.43;1.10;;;14.90;98.00;;;;;;5033509;28;20476;-73
2022/12/31 01:41:37;;;;;;;1.53;1.20;;;14.80;98.00;;;;;;5033672;28;20817;-73
2022/12/31 01:44:42;;;;;;;1.30;1.20;;;14.70;98.00;;;;;;5033503;28;20462;-73
2022/12/31 01:47:15;;;;;;;1.53;1.20;;;14.70;98.00;;;;;;5033062;28;20507;-73
2022/12/31 01:49:45;;;;;;;3.83;1.70;;;14.70;98.00;;;;;;5033513;28;20495;-73
2022/12/31 01:52:17;;;;;;;1.30;1.20;;;14.70;98.00;;;;;;5033298;28;20487;-73
2022/12/31 01:54:56;;;;;;;1.43;1.13;;;14.70;98.00;;;;;;5033532;28;20510;-73
2022/12/31 01:57:24;;;;;;;1.50;1.37;;;14.60;98.00;;;;;;5033194;28;20836;-73
2022/12/31 01:59:53;;;;;;;1.20;1.10;;;14.60;98.00;;;;;;5033587;28;20453;-73
2022/12/31 02:02:21;;;;;;;1.20;1.10;;;14.60;98.00;;;;;;5032836;28;20981;-73
2022/12/31 02:04:53;;;;;;;1.40;1.10;;;14.50;98.00;;;;;;5033270;28;20515;-73
2022/12/31 02:07:20;;;;;;;1.30;1.20;;;14.50;98.00;;;;;;5032839;28;20493;-73
2022/12/31 02:09:47;;;;;;;5.23;1.43;;;14.50;98.00;;;;;;5032911;28;20952;-73
2022/12/31 02:12:15;;;;;;;2.17;1.30;;;14.50;98.00;;;;;;5032528;28;20469;-73
2022/12/31 02:14:46;;;;;;;1.50;1.20;;;14.50;98.00;;;;;;5032825;28;20462;-73
2022/12/31 02:17:22;;;;;;;4.50;1.17;;;14.50;98.00;;;;;;5032585;28;20548;-73
2022/12/31 02:20:19;;;;;;;1.50;1.10;;;14.50;98.00;;;;;;5032826;28;20483;-73
2022/12/31 02:23:29;;;;;;;1.67;1.30;;;14.50;98.00;;;;;;5032307;28;20476;-73
2022/12/31 02:26:13;;;;;;;1.27;1.10;;;14.50;98.00;;;;;;5025948;28;20476;-73
2022/12/31 02:29:07;;;;;;;1.30;1.20;;;14.40;98.00;;;;;;5031896;28;20652;-73
2022/12/31 02:31:40;;;;;;;1.20;1.20;;;14.40;98.00;;;;;;5032470;28;20457;-73
2022/12/31 02:34:12;;;;;;;1.20;1.20;;;14.40;98.00;;;;;;5032591;28;20822;-73
2022/12/31 02:36:44;;;;;;;1.70;1.30;;;14.40;98.00;;;;;;5032529;28;20820;-73
2022/12/31 02:39:16;;;;;;;1.30;1.10;;;14.40;98.00;;;;;;5032492;28;20483;-73
2022/12/31 02:41:49;;;;;;;1.20;1.20;;;14.40;98.00;;;;;;5032600;28;20472;-73
2022/12/31 02:44:36;;;;;;;1.33;1.30;;;14.40;98.00;;;;;;5032376;28;20457;-73
2022/12/31 02:47:21;;;;;;;1.70;1.30;;;14.40;98.00;;;;;;5032290;28;20460;-73
2022/12/31 02:50:04;;;;;;;1.50;1.30;;;14.40;98.00;;;;;;5032225;28;20493;-73
2022/12/31 02:52:43;;;;;;;1.20;1.10;;;14.50;98.00;;;;;;5031980;28;20461;-73
2022/12/31 02:55:16;;;;;;;1.40;1.10;;;14.50;98.00;;;;;;5032327;28;20472;-73
2022/12/31 02:57:53;;;;;;;1.20;1.10;;;14.60;98.00;;;;;;5032353;28;20462;-73
2022/12/31 03:03:07;;;;;;;1.90;1.27;;;14.70;98.00;;;;;;5032110;28;20439;-73
2022/12/31 03:05:39;;;;;;;1.30;1.20;;;14.80;98.00;;;;;;5031977;28;20490;-73
2022/12/31 03:08:06;;;;;;;1.90;1.30;;;14.80;98.00;;;;;;5031790;28;20489;-73
2022/12/31 03:10:33;;;;;;;1.60;1.30;;;14.90;98.00;;;;;;5031728;28;20470;-73
2022/12/31 03:12:59;;;;;;;1.30;1.20;;;14.90;98.00;;;;;;5031987;28;20469;-73
2022/12/31 03:15:28;;;;;;;1.67;1.20;;;14.90;98.00;;;;;;5031718;28;20469;-73
2022/12/31 03:17:59;;;;;;;1.77;1.27;;;14.90;98.00;;;;;;5031876;28;20511;-73
2022/12/31 03:23:18;;;;;;;1.40;1.30;;;14.90;98.00;;;;;;5031866;28;20453;-73
2022/12/31 03:25:45;;;;;;;1.30;1.13;;;14.90;98.00;;;;;;5031761;28;20512;-73
2022/12/31 03:28:14;;;;;;;2.33;1.30;;;14.90;98.00;;;;;;5031638;28;20489;-73
2022/12/31 03:30:46;;;;;;;1.30;1.20;;;15.00;98.00;;;;;;5031794;28;20804;-73
2022/12/31 03:33:13;;;;;;;1.90;1.20;;;15.00;98.00;;;;;;5031941;28;20469;-73
2022/12/31 03:35:50;;;;;;;1.20;1.10;;;14.90;98.00;;;;;;5035970;28;20955;-73
2022/12/31 03:38:18;;;;;;;1.37;1.30;;;14.90;98.00;;;;;;5035929;28;20462;-73
2022/12/31 03:40:47;;;;;;;1.70;1.33;;;14.90;98.00;;;;;;5035849;28;20473;-73
2022/12/31 03:43:15;;;;;;;5.00;1.30;;;15.00;98.00;;;;;;5035825;28;20853;-73
2022/12/31 03:45:42;;;;;;;1.57;1.17;;;15.00;98.00;;;;;;5036018;28;20458;-73
2022/12/31 03:48:11;;;;;;;1.70;1.30;;;15.00;98.00;;;;;;5035624;28;20488;-73
2022/12/31 03:50:38;;;;;;;6.97;1.63;;;15.00;98.00;;;;;;5035920;28;20461;-73
2022/12/31 03:53:06;;;;;;;1.73;1.30;;;15.00;98.00;;;;;;5035593;28;21005;-73
2022/12/31 03:55:34;;;;;;;1.90;1.40;;;15.10;98.00;;;;;;5035576;28;20511;-73
2022/12/31 03:58:08;;;;;;;3.90;1.50;;;15.10;98.00;;;;;;5035655;28;20462;-73
2022/12/31 04:00:36;;;;;;;1.40;1.30;;;15.10;98.00;;;;;;5035748;28;20457;-73
2022/12/31 04:03:03;;;;;;;1.30;1.20;;;15.10;98.00;;;;;;5035058;28;20460;-73
2022/12/31 04:05:30;;;;;;;1.20;1.10;;;15.10;98.00;;;;;;5035292;28;20457;-72
2022/12/31 04:07:57;;;;;;;2.80;1.20;;;15.20;98.00;;;;;;5034906;28;20548;-72
2022/12/31 04:10:26;;;;;;;1.30;1.10;;;15.20;98.00;;;;;;5035147;28;20864;-73
2022/12/31 04:12:53;;;;;;;1.43;1.20;;;15.20;98.00;;;;;;5035096;28;20467;-73
2022/12/31 04:15:21;;;;;;;1.70;1.20;;;15.30;98.00;;;;;;5034901;28;20955;-73
2022/12/31 04:17:48;;;;;;;1.20;1.20;;;15.30;98.00;;;;;;5034949;28;20464;-73
2022/12/31 04:20:16;;;;;;;1.77;1.17;;;15.30;98.00;;;;;;5034818;28;20458;-73
2022/12/31 04:22:43;;;;;;;1.20;1.00;;;15.40;98.00;;;;;;5034819;28;20468;-73
2022/12/31 04:25:11;;;;;;;1.20;1.10;;;15.40;98.00;;;;;;5034775;28;20556;-73
2022/12/31 04:27:42;;;;;;;1.30;1.20;;;15.40;98.00;;;;;;5034842;28;20528;-73
2022/12/31 04:30:10;;;;;;;1.47;1.20;;;15.50;98.00;;;;;;5033560;28;20908;-73
2022/12/31 04:32:37;;;;;;;1.53;1.30;;;15.50;98.00;;;;;;5034787;28;20459;-73
2022/12/31 04:35:05;;;;;;;1.50;1.40;;;15.50;98.00;;;;;;5034429;28;20462;-73
2022/12/31 04:37:33;;;;;;;1.20;1.20;;;15.60;98.00;;;;;;5034711;28;20461;-73
2022/12/31 04:40:00;;;;;;;1.60;1.30;;;15.60;98.00;;;;;;5034668;28;20543;-73
2022/12/31 04:42:27;;;;;;;2.07;1.30;;;15.60;98.00;;;;;;5034665;28;20457;-73
2022/12/31 04:44:55;;;;;;;1.20;1.10;;;15.60;98.00;;;;;;5033570;28;20472;-73
2022/12/31 04:47:22;;;;;;;1.40;1.10;;;15.60;98.00;;;;;;5034501;28;20462;-73
2022/12/31 04:49:50;;;;;;;2.60;1.50;;;15.60;98.00;;;;;;5034555;28;20484;-73
2022/12/31 04:52:17;;;;;;;1.57;1.33;;;15.60;98.00;;;;;;5034548;28;20953;-73
2022/12/31 04:54:45;;;;;;;1.50;1.20;;;15.70;98.00;;;;;;5034848;28;20458;-73
2022/12/31 04:57:12;;;;;;;1.30;1.20;;;15.70;98.00;;;;;;5033719;28;20466;-73
2022/12/31 04:59:39;;;;;;;1.40;1.20;;;15.70;98.00;;;;;;5034563;28;20525;-73
2022/12/31 05:02:07;;;;;;;1.60;1.30;;;15.70;98.00;;;;;;5034165;28;20458;-73
2022/12/31 05:04:34;;;;;;;1.97;1.37;;;15.70;98.00;;;;;;5034204;28;20462;-73
2022/12/31 05:07:01;;;;;;;1.67;1.37;;;15.70;98.00;;;;;;5033919;28;20447;-73
2022/12/31 05:09:29;;;;;;;2.27;1.43;;;15.60;98.00;;;;;;5033758;28;20478;-73
2022/12/31 05:11:57;;;;;;;1.50;1.30;;;15.70;98.00;;;;;;5034111;28;20455;-73
2022/12/31 05:14:24;;;;;;;1.40;1.17;;;15.70;98.00;;;;;;5033807;28;20464;-73
2022/12/31 05:16:53;;;;;;;1.20;1.10;;;15.80;98.00;;;;;;5033908;28;20451;-73
2022/12/31 05:19:21;;;;;;;1.20;1.20;;;15.80;98.00;;;;;;5033638;28;20465;-73
2022/12/31 05:22:27;;;;;;;1.20;1.10;;;15.80;98.00;;;;;;5033913;28;20521;-73
2022/12/31 05:24:36;;;;;;;1.30;1.20;;;15.80;98.00;;;;;;5033416;28;20813;-73
2022/12/31 05:27:03;;;;;;;1.30;1.20;;;15.80;98.00;;;;;;5033623;28;20455;-73
2022/12/31 05:29:30;;;;;;;1.47;1.20;;;15.80;98.00;;;;;;5032331;28;20486;-73
2022/12/31 05:31:57;;;;;;;1.40;1.20;;;15.80;98.00;;;;;;5033673;28;20521;-73
2022/12/31 05:34:25;;;;;;;1.27;1.23;;;15.70;98.00;;;;;;5033517;28;20466;-73
2022/12/31 05:36:52;;;;;;;1.53;1.30;;;15.80;98.00;;;;;;5032490;28;20454;-73
2022/12/31 05:39:19;;;;;;;1.60;1.30;;;15.80;98.00;;;;;;5033486;28;20467;-73
2022/12/31 05:41:47;;;;;;;2.20;1.40;;;15.70;98.00;;;;;;5033624;28;20466;-73
2022/12/31 05:44:14;;;;;;;1.20;1.10;;;15.70;98.00;;;;;;5033548;28;20543;-74
2022/12/31 05:46:41;;;;;;;1.60;1.23;;;15.70;98.00;;;;;;5033760;28;20486;-73
2022/12/31 05:49:08;;;;;;;1.50;1.27;;;15.80;98.00;;;;;;5033479;28;20482;-73
2022/12/31 05:51:38;;;;;;;1.50;1.40;;;15.80;98.00;;;;;;5033610;28;20465;-73
2022/12/31 05:54:05;;;;;;;1.30;1.20;;;15.80;98.00;;;;;;5033574;28;20466;-73
2022/12/31 05:56:33;;;;;;;1.30;1.30;;;15.80;98.00;;;;;;5032931;28;20960;-74
2022/12/31 05:59:00;;;;;;;1.50;1.27;;;15.70;98.00;;;;;;5031726;28;20469;-73
2022/12/31 06:01:27;;;;;;;1.30;1.20;;;15.80;98.00;;;;;;5033044;28;20466;-73
2022/12/31 06:03:54;;;;;;;1.40;1.20;;;15.80;98.00;;;;;;5032971;28;20458;-73
2022/12/31 06:06:21;;;;;;;1.40;1.20;;;15.80;98.00;;;;;;5032788;28;20462;-73
2022/12/31 06:08:51;;;;;;;1.50;1.30;;;15.70;98.00;;;;;;5032891;28;20482;-73
2022/12/31 06:11:18;;;;;;;1.40;1.30;;;15.70;98.00;;;;;;5032747;28;20474;-74
2022/12/31 06:13:45;;;;;;;1.40;1.20;;;15.70;98.00;;;;;;5032847;28;20457;-74
2022/12/31 06:16:12;;;;;;;1.30;1.27;;;15.70;98.00;;;;;;5032821;28;20512;-73
2022/12/31 06:18:40;;;;;;;1.30;1.20;;;15.80;98.00;;;;;;5032728;28;20843;-73
2022/12/31 06:21:07;;;;;;;1.30;1.20;;;15.80;98.00;;;;;;5032816;28;20457;-74
2022/12/31 06:23:34;;;;;;;1.70;1.30;;;15.80;98.00;;;;;;5024934;28;20455;-73
2022/12/31 06:26:04;;;;;;;1.77;1.20;;;15.90;98.00;;;;;;5012893;28;20532;-74
2022/12/31 06:28:31;;;;;;;1.40;1.10;;;15.90;98.00;;;;;;5012513;28;20489;-73
2022/12/31 06:31:00;;;;;;;1.50;1.30;;;15.90;98.00;;;;;;5012738;28;20493;-73
2022/12/31 06:33:27;;;;;;;1.60;1.30;;;15.90;98.00;;;;;;5012610;28;20462;-74
2022/12/31 06:35:56;;;;;;;1.70;1.50;;;15.90;98.00;;;;;;5012840;28;20459;-73
2022/12/31 06:38:23;;;;;;;2.33;1.20;;;15.90;98.00;;;;;;5012620;28;20494;-73
2022/12/31 06:40:51;;;;;;;1.27;1.17;;;15.90;98.00;;;;;;5011628;28;20467;-73
2022/12/31 06:43:20;;;;;;;1.70;1.30;;;15.90;98.00;;;;;;5012743;28;20509;-73
2022/12/31 06:45:49;;;;;;;1.33;1.20;;;15.80;98.00;;;;;;5012875;28;20550;-73
2022/12/31 06:48:17;;;;;;;1.30;1.20;;;15.80;98.00;;;;;;5012621;28;20959;-74
2022/12/31 06:50:44;;;;;;;1.30;1.20;;;15.70;98.00;;;;;;5012623;28;20487;-74
2022/12/31 06:53:11;;;;;;;1.50;1.17;;;15.70;98.00;;;;;;5012687;28;20506;-73
2022/12/31 06:55:39;;;;;;;1.60;1.20;;;15.70;98.00;;;;;;5011353;28;20457;-74
2022/12/31 06:58:09;;;;;;;1.57;1.20;;;15.80;98.00;;;;;;5012320;28;20463;-73
2022/12/31 07:00:38;;;;;;;1.50;1.50;;;15.70;98.00;;;;;;5012439;28;20463;-70
2022/12/31 07:03:26;;;;;;;1.50;1.40;;;15.70;98.00;;;;;;5011077;28;20463;-69
2022/12/31 07:06:01;;;;;;;1.43;1.37;;;15.70;98.00;;;;;;5012333;28;20514;-70
2022/12/31 07:08:40;;;;;;;1.30;1.20;;;15.70;98.00;;;;;;5011461;28;20553;-70
2022/12/31 07:11:18;;;;;;;1.60;1.23;;;15.60;98.00;;;;;;5012092;28;21028;-70
2022/12/31 07:14:03;;;;;;;1.50;1.30;;;15.60;98.00;;;;;;5012250;28;20977;-69
2022/12/31 07:16:46;;;;;;;1.30;1.17;;;15.60;98.00;;;;;;5012019;28;20458;-69
2022/12/31 07:19:25;;;;;;;1.30;1.17;;;15.60;98.00;;;;;;5012060;28;20463;-69
2022/12/31 07:21:54;;;;;;;1.40;1.27;;;15.60;98.00;;;;;;5012218;28;20455;-70
2022/12/31 07:24:22;;;;;;;1.30;1.20;;;15.70;98.00;;;;;;5011832;28;20550;-70
2022/12/31 07:27:05;;;;;;;2.07;1.40;;;15.60;98.00;;;;;;5012228;28;20485;-70
2022/12/31 07:29:46;;;;;;;1.80;1.30;;;15.70;98.00;;;;;;5011922;28;20919;-71
2022/12/31 07:32:27;;;;;;;1.50;1.23;;;15.70;98.00;;;;;;5011959;28;20502;-69
2022/12/31 07:35:04;;;;;;;2.53;1.23;;;15.70;98.00;;;;;;5012014;28;20462;-69
2022/12/31 07:37:35;;;;;;;1.40;1.30;;;15.70;98.00;;;;;;5011983;28;20458;-69
2022/12/31 07:40:16;;;;;;;1.37;1.30;;;15.70;98.00;;;;;;5012145;28;21014;-70
2022/12/31 07:43:04;;;;;;;1.30;1.30;;;15.70;98.00;;;;;;5012006;28;20451;-70
2022/12/31 07:45:38;;;;;;;1.80;1.30;;;15.80;98.00;;;;;;5012025;28;20471;-70
2022/12/31 07:48:21;;;;;;;1.50;1.20;;;15.80;98.00;;;;;;5010813;28;20462;-70
2022/12/31 07:50:48;;;;;;;1.60;1.30;;;15.80;98.00;;;;;;5012216;28;20489;-70
2022/12/31 07:53:16;;;;;;;1.33;1.20;;;15.90;98.00;;;;;;5012280;28;20486;-70
2022/12/31 07:55:43;;;;;;;1.50;1.40;;;15.80;98.00;;;;;;5012171;28;20455;-69
2022/12/31 07:58:20;;;;;;;1.30;1.30;;;15.80;98.00;;;;;;5011621;28;20486;-70
2022/12/31 08:00:48;;;;;;;1.40;1.30;;;15.80;98.00;;;;;;5011107;28;20506;-69
2022/12/31 08:03:31;;;;;;;1.30;1.10;;;15.80;98.00;;;;;;5010932;28;20686;-69
2022/12/31 08:06:10;;;;;;;1.77;1.40;;;15.80;98.00;;;;;;5010333;28;20467;-69
2022/12/31 08:08:46;;;;;;;2.03;1.47;;;15.80;98.00;;;;;;5011700;28;20498;-69
2022/12/31 08:11:20;;;;;;;1.50;1.37;;;15.80;98.00;;;;;;5011489;28;20497;-69
2022/12/31 08:13:56;;;;;;;1.30;1.20;;;15.80;98.00;;;;;;5011625;28;20465;-69
2022/12/31 08:16:23;;;;;;;1.30;1.30;;;15.90;98.00;;;;;;5010370;28;20854;-69
2022/12/31 08:18:52;;;;;;;1.40;1.30;;;15.90;98.00;;;;;;5012129;28;20541;-70
2022/12/31 08:21:33;;;;;;;1.40;1.30;;;16.00;98.00;;;;;;5015227;28;20461;-70
2022/12/31 08:24:12;;;;;;;1.20;1.20;;;16.00;98.00;;;;;;5015051;28;20462;-70
2022/12/31 08:26:52;;;;;;;1.70;1.40;;;16.00;98.00;;;;;;5015079;28;20466;-70
2022/12/31 08:29:33;;;;;;;1.53;1.27;;;16.10;98.00;;;;;;5014868;28;20529;-70
2022/12/31 08:32:10;;;;;;;1.57;1.40;;;16.10;98.00;;;;;;5015027;28;20459;-70
2022/12/31 08:34:46;;;;;;;1.30;1.27;;;16.20;98.00;;;;;;5014901;28;20463;-70
2022/12/31 08:37:19;;;;;;;1.20;1.20;;;16.30;98.00;;;;;;5022309;28;20462;-69
2022/12/31 08:40:00;;;;;;;1.60;1.33;;;16.30;98.00;;;;;;5035376;28;20465;-69
2022/12/31 08:42:37;;;;;;;1.30;1.20;;;16.40;98.00;;;;;;5038388;28;20485;-69
2022/12/31 08:45:14;;;;;;;1.80;1.50;;;16.40;98.00;;;;;;5033626;28;20465;-69
2022/12/31 08:47:51;;;;;;;1.73;1.37;;;16.40;98.00;;;;;;5031755;28;20503;-69
2022/12/31 08:50:20;;;;;;;1.20;1.20;;;16.40;98.00;;;;;;5045401;28;20481;-68
2022/12/31 08:52:48;;;;;;;1.40;1.30;;;16.50;98.00;;;;;;5033712;28;20479;-70
2022/12/31 08:55:17;;;;;;;1.77;1.40;;;16.50;98.00;;;;;;5048482;28;20900;-70
2022/12/31 08:57:53;;;;;;;1.60;1.30;;;16.60;98.00;;;;;;5050857;28;20464;-70
2022/12/31 09:00:21;;;;;;;1.77;1.30;;;16.60;98.00;;;;;;5032457;28;20462;-69
2022/12/31 09:03:09;;;;;;;1.20;1.10;;;16.60;98.00;;;;;;5041826;28;20940;-69
2022/12/31 09:05:52;;;;;;;1.67;1.30;;;16.60;98.00;;;;;;5038523;28;20484;-69
2022/12/31 09:08:28;;;;;;;1.93;1.20;;;16.60;98.00;;;;;;5037512;28;20972;-69
2022/12/31 09:11:01;;;;;;;2.23;1.30;;;16.60;98.00;;;;;;5045561;28;20505;-69
2022/12/31 09:13:38;;;;;;;1.70;1.13;;;16.70;98.00;;;;;;5034534;28;20465;-70
2022/12/31 09:16:18;;;;;;;1.43;1.20;;;16.60;98.00;;;;;;5046221;28;20453;-70
2022/12/31 09:18:45;;;;;;;1.50;1.30;;;16.70;98.00;;;;;;5042215;28;20498;-69
2022/12/31 09:21:15;;;;;;;1.20;1.10;;;16.70;98.00;;;;;;5031720;28;20454;-69
2022/12/31 09:23:43;;;;;;;1.40;1.30;;;16.80;98.00;;;;;;5030996;28;20485;-70
2022/12/31 09:26:24;;;;;;;2.17;1.37;;;16.80;98.00;;;;;;5039598;28;20956;-70
2022/12/31 09:28:59;;;;;;;1.40;1.23;;;16.90;98.00;;;;;;5049526;28;20469;-70
2022/12/31 09:31:36;;;;;;;1.70;1.23;;;16.90;98.00;;;;;;5039007;28;21103;-70
2022/12/31 09:34:12;;;;;;;1.50;1.40;;;17.00;98.00;;;;;;5023358;28;20467;-69
2022/12/31 09:36:46;;;;;;;1.20;1.17;;;17.10;98.00;;;;;;5045200;28;20472;-71
2022/12/31 09:39:21;;;;;;;1.53;1.37;;;17.10;98.00;;;;;;5043277;28;20466;-70
2022/12/31 09:42:20;;;;;;;1.53;1.37;;;17.10;98.00;;;;;;5046607;28;21109;-70
2022/12/31 09:45:17;;;;;;;1.40;1.30;;;17.20;98.00;;;;;;5009568;28;20462;-70
2022/12/31 09:48:06;;;;;;;1.60;1.30;;;17.20;98.00;;;;;;5013345;28;20475;-71
2022/12/31 09:50:53;;;;;;;1.93;1.40;;;17.30;98.00;;;;;;5042893;28;20490;-70
2022/12/31 09:54:11;;;;;;;1.70;1.40;;;17.40;98.00;;;;;;5026735;28;20952;-70
2022/12/31 09:56:45;;;;;;;2.07;1.30;;;17.40;98.00;;;;;;4970309;28;20842;-69
2022/12/31 09:59:23;;;;;;;1.40;1.10;;;17.50;98.00;;;;;;5045353;28;20476;-69
2022/12/31 10:01:57;;;;;;;1.30;1.20;;;17.50;98.00;;;;;;5049441;28;20572;-71
2022/12/31 10:04:47;;;;;;;1.93;1.30;;;17.50;98.00;;;;;;5042039;28;20470;-71
2022/12/31 10:07:40;;;;;;;1.47;1.40;;;17.50;98.00;;;;;;5040519;28;20484;-70
2022/12/31 10:10:16;;;;;;;1.40;1.20;;;17.60;98.00;;;;;;5045927;28;20513;-70
2022/12/31 10:13:09;;;;;;;1.47;1.40;;;17.60;98.00;;;;;;5034535;28;20507;-71
2022/12/31 10:15:54;;;;;;;1.70;1.57;;;17.70;98.00;;;;;;5048332;28;20790;-72
2022/12/31 10:18:43;;;;;;;1.50;1.30;;;17.80;98.00;;;;;;5048596;28;20481;-69
2022/12/31 10:21:27;;;;;;;1.93;1.57;;;17.80;98.00;;;;;;5032870;28;20489;-70
2022/12/31 10:24:23;;;;;;;1.63;1.40;;;17.90;98.00;;;;;;5034267;28;20462;-72
2022/12/31 10:27:12;;;;;;;1.50;1.20;;;18.00;98.00;;;;;;5029687;28;20916;-72
2022/12/31 10:29:47;;;;;;;1.83;1.30;;;18.00;98.00;;;;;;5029197;28;20459;-70
2022/12/31 10:32:44;;;;;;;1.63;1.33;;;18.10;98.00;;;;;;5040096;28;20924;-70
2022/12/31 10:35:27;;;;;;;1.43;1.30;;;18.20;98.00;;;;;;5042417;28;20825;-70
2022/12/31 10:38:20;;;;;;;1.53;1.40;;;18.20;98.00;;;;;;5035341;28;20465;-69
2022/12/31 10:41:34;;;;;;;1.40;1.23;;;18.20;98.00;;;;;;5022297;28;20470;-64
2022/12/31 10:44:31;;;;;;;1.70;1.37;;;18.30;98.00;;;;;;5045687;28;20450;-70
2022/12/31 10:47:36;;;;;;;1.70;1.20;;;18.40;98.00;;;;;;5029877;28;20489;-72
2022/12/31 10:50:43;;;;;;;1.30;1.20;;;18.40;98.00;;;;;;5034531;28;20468;-70
2022/12/31 10:53:53;;;;;;;1.50;1.30;;;18.40;98.00;;;;;;5047374;28;20751;-69
2022/12/31 10:56:57;;;;;;;1.43;1.40;;;18.40;98.00;;;;;;5048397;28;20458;-74
2022/12/31 11:00:03;;;;;;;1.67;1.30;;;18.40;98.00;;;;;;5034710;28;20470;-72
2022/12/31 11:03:12;;;;;;;1.40;1.40;;;18.50;98.00;;;;;;5015873;28;20820;-70
2022/12/31 11:06:07;;;;;;;2.00;1.50;;;18.60;98.00;;;;;;5021636;28;20478;-71
2022/12/31 11:08:54;;;;;;;1.60;1.50;;;18.60;98.00;;;;;;5028356;28;20463;-70
2022/12/31 11:11:38;;;;;;;1.93;1.40;;;18.70;98.00;;;;;;5037340;28;20496;-70
2022/12/31 11:14:29;;;;;;;1.50;1.20;;;18.90;98.00;;;;;;5031023;28;20465;-70
2022/12/31 11:17:38;;;;;;;1.93;1.30;;;19.00;98.00;;;;;;5042112;28;20473;-71
2022/12/31 11:20:32;;;;;;;1.50;1.20;;;19.10;98.00;;;;;;5036672;28;20491;-71
2022/12/31 11:23:12;;;;;;;1.90;1.60;;;19.20;98.00;;;;;;5033235;28;20975;-72
2022/12/31 11:25:52;;;;;;;1.60;1.30;;;19.30;98.00;;;;;;5047960;28;20470;-70
2022/12/31 11:28:45;;;;;;;1.50;1.50;;;19.30;98.00;;;;;;5030781;28;20471;-71
2022/12/31 11:31:28;;;;;;;1.30;1.30;;;19.40;98.00;;;;;;5031458;28;20493;-70
2022/12/31 11:34:11;;;;;;;1.30;1.30;;;19.40;98.00;;;;;;5028199;28;20462;-71
2022/12/31 11:36:53;;;;;;;2.20;1.60;;;19.40;98.00;;;;;;5038460;28;20454;-70
2022/12/31 11:39:35;;;;;;;1.27;1.20;;;19.50;98.00;;;;;;5028853;28;20466;-71
2022/12/31 11:42:14;;;;;;;1.70;1.30;;;19.50;98.00;;;;;;5036332;28;20520;-71
2022/12/31 11:44:53;;;;;;;2.07;1.43;;;19.60;98.00;;;;;;5029840;28;20478;-71
2022/12/31 11:47:54;;;;;;;1.70;1.30;;;19.60;98.00;;;;;;5039214;28;21024;-71
2022/12/31 11:50:31;;;;;;;1.70;1.30;;;19.50;98.00;;;;;;5037052;28;20457;-71
2022/12/31 11:53:22;;;;;;;1.40;1.30;;;19.40;98.00;;;;;;5042409;28;20451;-73
2022/12/31 11:56:00;;;;;;;1.80;1.40;;;19.40;98.00;;;;;;5029712;28;20980;-71
2022/12/31 11:58:28;;;;;;;1.43;1.30;;;19.50;98.00;;;;;;5051552;28;20540;-72
2022/12/31 12:00:59;;;;;;;1.57;1.30;;;19.60;98.00;;;;;;5032501;28;20454;-72
2022/12/31 12:03:27;;;;;;;1.53;1.33;;;19.70;98.00;;;;;;5034344;28;20960;-70
2022/12/31 12:05:55;;;;;;;1.30;1.30;;;19.70;98.00;;;;;;5047801;28;20814;-72
2022/12/31 12:08:25;;;;;;;1.60;1.20;;;19.70;98.00;;;;;;5038141;28;21271;-72
2022/12/31 12:10:56;;;;;;;1.90;1.23;;;19.70;98.00;;;;;;5040372;28;20509;-71
2022/12/31 12:13:25;;;;;;;5.63;1.57;;;19.70;98.00;;;;;;5042494;28;20468;-70
2022/12/31 12:15:55;;;;;;;1.30;1.30;;;19.70;98.00;;;;;;5043265;28;20456;-71
2022/12/31 12:18:39;;;;;;;1.63;1.40;;;19.80;98.00;;;;;;5051306;28;20817;-71
2022/12/31 12:21:10;;;;;;;1.53;1.50;;;19.80;98.00;;;;;;5047518;28;20450;-72
2022/12/31 12:23:55;;;;;;;1.70;1.40;;;19.90;98.00;;;;;;5045837;28;20458;-71
2022/12/31 12:26:34;;;;;;;1.80;1.60;;;20.00;98.00;;;;;;5034799;28;20459;-70
2022/12/31 12:29:10;;;;;;;1.40;1.40;;;20.20;98.00;;;;;;5031315;28;21020;-71
2022/12/31 12:31:37;;;;;;;1.80;1.40;;;20.40;98.00;;;;;;5040459;28;20493;-70
2022/12/31 12:34:07;;;;;;;1.90;1.30;;;20.60;98.00;;;;;;5031596;28;20536;-70
2022/12/31 12:36:35;;;;;;;2.63;1.50;;;20.70;98.00;;;;;;5032310;28;20822;-70
2022/12/31 12:39:07;;;;;;;1.20;1.20;;;20.80;98.00;;;;;;5032730;28;20861;-65
2022/12/31 12:41:34;;;;;;;1.60;1.40;;;20.80;98.00;;;;;;5034010;28;20450;-70
2022/12/31 12:44:07;;;;;;;1.70;1.30;;;20.80;98.00;;;;;;5032646;28;20458;-71
2022/12/31 12:46:39;;;;;;;1.53;1.43;;;20.70;98.00;;;;;;5033880;28;20744;-70
2022/12/31 12:49:06;;;;;;;1.97;1.50;;;20.70;98.00;;;;;;5033588;28;20462;-71
2022/12/31 12:51:48;;;;;;;1.70;1.30;;;20.50;98.00;;;;;;5033750;28;20482;-71
2022/12/31 12:54:28;;;;;;;1.40;1.30;;;20.40;98.00;;;;;;5033967;28;20463;-71
2022/12/31 12:57:02;;;;;;;1.83;1.30;;;20.40;98.00;;;;;;5033752;28;20501;-70
2022/12/31 12:59:57;;;;;;;3.43;1.50;;;20.40;98.00;;;;;;5032343;28;20470;-70
2022/12/31 13:02:48;;;;;;;1.60;1.50;;;20.40;98.00;;;;;;5033600;28;20462;-67
2022/12/31 13:05:28;;;;;;;1.30;1.20;;;20.50;98.00;;;;;;5032440;28;20469;-70
2022/12/31 13:08:03;;;;;;;1.30;1.30;;;20.50;98.00;;;;;;5032297;28;20457;-70
2022/12/31 13:10:51;;;;;;;1.40;1.30;;;20.50;98.00;;;;;;5033332;28;20523;-70
2022/12/31 13:13:30;;;;;;;1.70;1.30;;;20.40;98.00;;;;;;5033257;28;20463;-70
2022/12/31 13:16:04;;;;;;;2.20;1.50;;;20.40;98.00;;;;;;5033348;28;20470;-70
2022/12/31 13:18:48;;;;;;;1.40;1.40;;;20.30;98.00;;;;;;5033492;28;20454;-70
2022/12/31 13:21:35;;;;;;;1.73;1.40;;;20.30;98.00;;;;;;5032317;28;20466;-71
2022/12/31 13:24:12;;;;;;;1.47;1.30;;;20.20;98.00;;;;;;5032899;28;20949;-70
2022/12/31 13:26:45;;;;;;;2.50;1.60;;;20.10;98.00;;;;;;5033194;28;20948;-70
2022/12/31 13:29:19;;;;;;;1.90;1.50;;;20.00;98.00;;;;;;5033014;28;20546;-71
2022/12/31 13:31:48;;;;;;;1.30;1.30;;;20.00;98.00;;;;;;5032951;28;20486;-71